Time;durP1;ratioP1;P1;durP2;ratioP2;P2;SDS_P1;SDS_P2;PMS_P1;PMS_P2;Temp;Humidity;BMP_temperature;BMP_pressure;BME280_temperature;BME280_humidity;BME280_pressure;Samples;Min_cycle;Max_cycle;Signal;HPM_P1;HPM_P2
2023/06/19 00:01:47;;;;;;;10.75;5.32;;;16.50;70.80;;;;;;4759091;30;20094;-93
2023/06/19 00:04:14;;;;;;;11.80;5.60;;;16.40;70.80;;;;;;4759129;30;20078;-93
2023/06/19 00:06:44;;;;;;;10.05;5.20;;;16.30;71.10;;;;;;4759047;30;20051;-94
2023/06/19 00:09:14;;;;;;;9.98;5.35;;;16.30;71.10;;;;;;4773442;30;20142;-94
2023/06/19 00:11:41;;;;;;;12.25;5.90;;;16.30;71.30;;;;;;4759575;30;20105;-93
2023/06/19 00:14:08;;;;;;;9.90;5.50;;;16.20;71.50;;;;;;4758639;30;20078;-93
2023/06/19 00:16:37;;;;;;;10.53;5.77;;;16.20;71.50;;;;;;4758868;30;20131;-92
2023/06/19 00:19:05;;;;;;;10.45;6.32;;;16.30;71.50;;;;;;4758554;30;20523;-93
2023/06/19 00:21:32;;;;;;;9.13;5.13;;;16.20;71.50;;;;;;4773044;30;20060;-93
2023/06/19 00:24:00;;;;;;;11.50;6.65;;;16.10;71.60;;;;;;4758497;30;20052;-93
2023/06/19 00:26:27;;;;;;;9.52;5.55;;;16.10;71.60;;;;;;4773316;30;20048;-93
2023/06/19 00:28:54;;;;;;;10.83;5.70;;;16.20;71.70;;;;;;4773303;30;20059;-93
2023/06/19 00:31:22;;;;;;;10.02;5.15;;;16.20;71.60;;;;;;4773684;30;20056;-94
2023/06/19 00:33:50;;;;;;;9.00;4.80;;;16.20;71.70;;;;;;4758893;30;20056;-93
2023/06/19 00:36:21;;;;;;;9.77;5.30;;;16.10;71.90;;;;;;4773404;30;20530;-93
2023/06/19 00:38:48;;;;;;;9.60;5.35;;;16.00;72.20;;;;;;4758240;30;20056;-93
2023/06/19 00:41:19;;;;;;;11.03;5.90;;;16.00;72.50;;;;;;4758688;30;20055;-93
2023/06/19 00:43:46;;;;;;;11.07;5.28;;;16.00;72.70;;;;;;4773630;30;20048;-93
2023/06/19 00:46:13;;;;;;;10.65;5.32;;;15.90;72.70;;;;;;4758271;30;20113;-92
2023/06/19 00:48:41;;;;;;;11.10;5.45;;;16.00;72.80;;;;;;4772741;30;20056;-92
2023/06/19 00:51:09;;;;;;;10.25;4.95;;;15.90;72.80;;;;;;4758197;30;20507;-92
2023/06/19 00:53:38;;;;;;;9.63;5.50;;;15.90;72.80;;;;;;4757808;30;20051;-93
2023/06/19 00:56:05;;;;;;;11.80;5.93;;;16.00;72.80;;;;;;4758044;30;20079;-92
2023/06/19 00:58:33;;;;;;;10.13;5.32;;;15.90;72.90;;;;;;4758115;30;20471;-93
2023/06/19 01:01:00;;;;;;;11.40;5.78;;;15.90;73.00;;;;;;4772901;30;20079;-92
2023/06/19 01:03:36;;;;;;;9.57;5.40;;;15.90;72.80;;;;;;4773706;30;20068;-93
2023/06/19 01:06:14;;;;;;;9.87;5.47;;;16.00;72.70;;;;;;4758280;30;20059;-92
2023/06/19 01:08:58;;;;;;;9.98;5.20;;;15.90;72.70;;;;;;4757835;30;20048;-91
2023/06/19 01:11:36;;;;;;;11.55;5.45;;;15.90;72.80;;;;;;4772267;30;20059;-91
2023/06/19 01:14:09;;;;;;;12.15;5.35;;;15.90;73.00;;;;;;4758060;30;20056;-92
2023/06/19 01:16:37;;;;;;;12.63;5.55;;;15.80;73.00;;;;;;4757641;30;20056;-91
2023/06/19 01:19:08;;;;;;;12.03;5.73;;;15.90;72.80;;;;;;4757225;30;20546;-92
2023/06/19 01:21:36;;;;;;;9.25;5.15;;;15.90;73.00;;;;;;4771954;30;20058;-92
2023/06/19 01:24:04;;;;;;;9.75;5.78;;;16.00;72.90;;;;;;4771904;30;20105;-91
2023/06/19 01:26:31;;;;;;;9.93;5.72;;;15.90;72.70;;;;;;4756991;30;20058;-92
2023/06/19 01:28:59;;;;;;;11.23;5.00;;;15.90;72.90;;;;;;4756262;30;20113;-91
2023/06/19 01:31:40;;;;;;;9.77;5.53;;;15.80;73.30;;;;;;4756820;30;20056;-92
2023/06/19 01:34:11;;;;;;;9.63;5.18;;;15.70;73.40;;;;;;4756561;30;20051;-92
2023/06/19 01:36:38;;;;;;;9.18;5.55;;;15.70;73.60;;;;;;4756584;30;20054;-92
2023/06/19 01:39:07;;;;;;;10.88;5.72;;;15.70;73.70;;;;;;4756614;30;20139;-92
2023/06/19 01:41:35;;;;;;;9.70;5.32;;;15.60;73.80;;;;;;4756471;30;20482;-91
2023/06/19 01:44:03;;;;;;;10.27;4.90;;;15.50;74.10;;;;;;4757103;30;20054;-93
2023/06/19 01:46:30;;;;;;;9.88;5.35;;;15.50;74.00;;;;;;4756841;30;20056;-91
2023/06/19 01:48:59;;;;;;;10.85;5.75;;;15.50;74.10;;;;;;4771725;30;20542;-92
2023/06/19 01:51:26;;;;;;;10.00;5.32;;;15.50;74.20;;;;;;4756793;30;20069;-91
2023/06/19 01:53:53;;;;;;;9.57;5.75;;;15.50;74.30;;;;;;4756265;30;20058;-91
2023/06/19 01:56:20;;;;;;;9.47;5.30;;;15.30;74.60;;;;;;4756488;30;20105;-92
2023/06/19 01:58:50;;;;;;;9.70;5.35;;;15.30;74.80;;;;;;4771139;30;20406;-91
2023/06/19 02:07:31;;;;;;;9.77;5.60;;;15.20;75.10;;;;;;5128266;27;20401;-92
2023/06/19 02:09:59;;;;;;;9.43;5.53;;;15.20;75.30;;;;;;5097476;28;20052;-92
2023/06/19 02:12:27;;;;;;;9.60;5.50;;;15.20;75.30;;;;;;5113151;28;20050;-91
2023/06/19 02:14:55;;;;;;;11.85;5.50;;;15.10;75.30;;;;;;5096165;28;20071;-91
2023/06/19 02:17:22;;;;;;;10.77;5.80;;;15.20;75.30;;;;;;5097255;28;20052;-92
2023/06/19 02:19:49;;;;;;;10.50;5.60;;;15.10;75.50;;;;;;5096356;28;20048;-92
2023/06/19 02:22:18;;;;;;;9.82;5.65;;;15.10;75.60;;;;;;5093188;28;20094;-92
2023/06/19 02:24:46;;;;;;;9.33;4.97;;;15.10;75.50;;;;;;5110809;28;20390;-92
2023/06/19 02:27:13;;;;;;;10.25;5.78;;;15.00;75.60;;;;;;5078834;28;20048;-91
2023/06/19 02:29:40;;;;;;;9.60;5.90;;;15.00;75.60;;;;;;5092213;28;20045;-92
2023/06/19 02:32:08;;;;;;;10.05;5.53;;;15.00;75.60;;;;;;5093768;28;20048;-92
2023/06/19 02:34:35;;;;;;;11.15;5.38;;;15.00;75.70;;;;;;5092125;28;20048;-91
2023/06/19 02:37:05;;;;;;;10.33;5.27;;;15.00;75.80;;;;;;5091067;28;20118;-91
2023/06/19 02:39:32;;;;;;;10.10;5.43;;;15.00;75.90;;;;;;5108225;28;20048;-91
2023/06/19 02:41:59;;;;;;;10.02;5.65;;;15.00;75.80;;;;;;5090970;28;20055;-91
2023/06/19 02:44:28;;;;;;;10.80;5.22;;;15.00;75.80;;;;;;5074800;28;20052;-91
2023/06/19 02:46:57;;;;;;;9.75;5.07;;;15.00;75.90;;;;;;5090507;28;20066;-91
2023/06/19 02:49:25;;;;;;;8.27;5.07;;;14.90;75.90;;;;;;5090850;28;20397;-91
2023/06/19 02:51:52;;;;;;;9.40;5.00;;;15.00;76.00;;;;;;5090651;28;20076;-91
2023/06/19 02:54:20;;;;;;;8.95;5.28;;;14.90;75.80;;;;;;5090683;28;20040;-90
2023/06/19 02:56:47;;;;;;;9.50;5.30;;;15.00;75.80;;;;;;5090670;28;20076;-91
2023/06/19 02:59:17;;;;;;;10.63;5.68;;;15.00;75.60;;;;;;5090648;28;20067;-91
2023/06/19 03:01:44;;;;;;;9.57;4.90;;;15.00;75.50;;;;;;5090596;28;20048;-91
2023/06/19 03:04:30;;;;;;;9.00;5.00;;;15.00;75.40;;;;;;5091021;28;20062;-91
2023/06/19 03:07:02;;;;;;;9.02;4.90;;;15.00;75.20;;;;;;5090210;28;20473;-91
2023/06/19 03:09:30;;;;;;;8.93;4.65;;;15.00;75.20;;;;;;5073882;28;20051;-91
2023/06/19 03:11:57;;;;;;;8.75;4.95;;;15.00;75.20;;;;;;5090676;28;20072;-91
2023/06/19 03:14:24;;;;;;;9.23;5.00;;;15.10;74.90;;;;;;5090465;28;20076;-91
2023/06/19 03:16:51;;;;;;;10.60;5.95;;;15.20;75.00;;;;;;5086959;28;20094;-91
2023/06/19 03:19:21;;;;;;;10.88;5.20;;;15.20;74.70;;;;;;5076641;28;20060;-91
2023/06/19 03:21:49;;;;;;;11.50;5.28;;;15.30;74.50;;;;;;5076776;28;20464;-92
2023/06/19 03:24:16;;;;;;;10.30;4.97;;;15.20;74.60;;;;;;5076605;28;20391;-91
2023/06/19 03:26:44;;;;;;;9.73;5.20;;;15.20;74.50;;;;;;5076769;28;20112;-91
2023/06/19 03:29:11;;;;;;;10.77;5.28;;;15.20;74.50;;;;;;5076602;28;20044;-91
2023/06/19 03:31:52;;;;;;;8.95;4.85;;;15.20;74.60;;;;;;5076637;28;20060;-91
2023/06/19 03:34:23;;;;;;;9.77;4.95;;;15.20;74.50;;;;;;5076613;28;20558;-91
2023/06/19 03:36:53;;;;;;;8.65;4.97;;;15.20;74.50;;;;;;5076766;28;20044;-91
2023/06/19 03:39:22;;;;;;;10.37;5.10;;;15.20;74.40;;;;;;5076293;28;20044;-91
2023/06/19 03:41:49;;;;;;;10.15;4.55;;;15.20;74.30;;;;;;5076819;28;20045;-90
2023/06/19 03:44:17;;;;;;;10.23;5.32;;;15.20;74.20;;;;;;5076230;28;20048;-91
2023/06/19 03:46:44;;;;;;;9.05;5.20;;;15.20;74.20;;;;;;5076249;28;20056;-91
2023/06/19 03:49:12;;;;;;;10.57;5.50;;;15.20;74.30;;;;;;5076825;28;20044;-90
2023/06/19 03:51:39;;;;;;;8.90;5.07;;;15.20;74.20;;;;;;5076223;28;20045;-90
2023/06/19 03:54:06;;;;;;;9.63;5.10;;;15.30;74.30;;;;;;5059729;28;20394;-91
2023/06/19 03:56:33;;;;;;;9.35;5.15;;;15.30;74.20;;;;;;5076161;28;20059;-91
2023/06/19 03:59:00;;;;;;;9.20;4.68;;;15.30;74.10;;;;;;5076152;28;20135;-91
2023/06/19 04:01:27;;;;;;;8.10;4.50;;;15.40;73.80;;;;;;5075907;28;20052;-91
2023/06/19 04:03:55;;;;;;;10.17;4.63;;;15.40;73.80;;;;;;5075799;28;20048;-90
2023/06/19 04:06:22;;;;;;;9.18;4.78;;;15.50;73.70;;;;;;5075824;28;20090;-91
2023/06/19 04:08:49;;;;;;;9.07;5.03;;;15.40;73.80;;;;;;5075690;28;20062;-91
2023/06/19 04:11:17;;;;;;;9.57;5.00;;;15.50;73.60;;;;;;5075812;28;20051;-91
2023/06/19 04:13:44;;;;;;;9.48;4.47;;;15.50;73.60;;;;;;5075743;28;20065;-92
2023/06/19 04:16:12;;;;;;;10.27;4.80;;;15.50;73.40;;;;;;5076098;28;20048;-91
2023/06/19 04:18:41;;;;;;;9.90;4.90;;;15.50;73.50;;;;;;5075831;28;20075;-91
2023/06/19 04:21:08;;;;;;;9.50;5.13;;;15.70;73.00;;;;;;5075809;28;20048;-91
2023/06/19 04:23:37;;;;;;;9.27;4.90;;;15.80;72.80;;;;;;5075485;28;20045;-91
2023/06/19 04:26:04;;;;;;;11.32;4.68;;;16.00;72.30;;;;;;5059087;28;20044;-91
2023/06/19 04:28:32;;;;;;;9.93;5.00;;;16.10;72.10;;;;;;5074858;28;20040;-91
2023/06/19 04:31:01;;;;;;;9.82;4.47;;;16.20;71.90;;;;;;5075117;28;20048;-91
2023/06/19 04:33:29;;;;;;;7.88;4.35;;;16.30;71.20;;;;;;5075388;28;20053;-92
2023/06/19 04:35:56;;;;;;;8.88;4.57;;;16.50;70.90;;;;;;5075148;28;20059;-92
2023/06/19 04:38:25;;;;;;;8.52;3.70;;;16.60;70.60;;;;;;5075598;28;20045;-91
2023/06/19 04:40:53;;;;;;;8.67;4.40;;;16.70;70.60;;;;;;5075035;28;20502;-91
2023/06/19 04:43:20;;;;;;;8.98;4.28;;;16.80;70.10;;;;;;5075321;28;20086;-92
2023/06/19 04:45:47;;;;;;;7.82;4.65;;;17.00;69.60;;;;;;5075006;28;20106;-92
2023/06/19 04:48:14;;;;;;;8.57;4.38;;;17.10;69.20;;;;;;5075040;28;20037;-92
2023/06/19 04:50:42;;;;;;;7.57;4.32;;;17.20;69.20;;;;;;5074864;28;20047;-93
2023/06/19 04:53:09;;;;;;;8.30;4.40;;;17.30;68.60;;;;;;5074655;28;20051;-92
2023/06/19 04:55:37;;;;;;;9.82;4.43;;;17.50;68.60;;;;;;5075085;28;20048;-91
2023/06/19 04:58:04;;;;;;;7.78;4.03;;;17.50;67.90;;;;;;5074604;28;20036;-91
2023/06/19 05:00:31;;;;;;;8.55;4.43;;;17.70;67.50;;;;;;5074773;28;20040;-92
2023/06/19 05:03:00;;;;;;;10.77;4.40;;;17.90;67.10;;;;;;5074640;28;20044;-92
2023/06/19 05:05:28;;;;;;;7.63;4.10;;;18.00;66.80;;;;;;5074505;28;20509;-93
2023/06/19 05:07:55;;;;;;;10.65;4.13;;;18.10;66.70;;;;;;5074661;28;20501;-92
2023/06/19 05:10:23;;;;;;;8.02;4.18;;;18.30;65.90;;;;;;5074795;28;20044;-91
2023/06/19 05:12:50;;;;;;;7.88;3.97;;;18.30;65.60;;;;;;5079012;28;20049;-93
2023/06/19 05:15:17;;;;;;;8.13;4.22;;;18.50;65.60;;;;;;5074333;28;20074;-88
2023/06/19 05:17:46;;;;;;;8.13;4.50;;;18.60;65.80;;;;;;5073828;28;20509;-88
2023/06/19 05:20:13;;;;;;;8.00;4.18;;;18.60;64.70;;;;;;5074187;28;20516;-88
2023/06/19 05:22:41;;;;;;;9.10;4.00;;;18.80;65.40;;;;;;5074489;28;20072;-88
2023/06/19 05:25:08;;;;;;;9.60;4.00;;;19.00;64.50;;;;;;5057420;28;20076;-89
2023/06/19 05:27:35;;;;;;;7.75;3.75;;;19.20;64.40;;;;;;5057535;28;20051;-89
2023/06/19 05:30:04;;;;;;;10.70;4.13;;;19.30;64.30;;;;;;5057696;28;20131;-89
2023/06/19 05:32:31;;;;;;;8.60;4.22;;;19.50;64.80;;;;;;5057123;28;20048;-89
2023/06/19 05:34:58;;;;;;;6.93;3.55;;;19.70;64.20;;;;;;5057516;28;20098;-89
2023/06/19 05:37:26;;;;;;;7.82;4.05;;;19.90;62.70;;;;;;5057042;28;20044;-88
2023/06/19 05:48:21;;;;;;;9.02;4.00;;;20.10;61.70;;;;;;5856979;23;20028;-89
2023/06/19 05:50:49;;;;;;;7.78;4.03;;;20.20;61.80;;;;;;4859435;29;20045;-88
2023/06/19 05:53:31;;;;;;;8.55;4.25;;;20.40;61.10;;;;;;4860332;29;20140;-88
2023/06/19 05:56:16;;;;;;;7.82;3.83;;;20.50;61.50;;;;;;4863751;29;20448;-89
2023/06/19 05:58:43;;;;;;;9.13;4.17;;;20.70;62.20;;;;;;4861203;29;20105;-89
2023/06/19 06:01:10;;;;;;;9.20;4.47;;;20.90;61.60;;;;;;4861238;29;20144;-89
2023/06/19 06:03:38;;;;;;;9.85;4.07;;;21.00;60.40;;;;;;4861155;29;20064;-89
2023/06/19 06:06:05;;;;;;;8.10;3.85;;;21.10;59.70;;;;;;4860973;29;20535;-89
2023/06/19 06:08:32;;;;;;;8.25;3.90;;;21.10;59.80;;;;;;4861710;29;20152;-90
2023/06/19 06:10:59;;;;;;;8.93;4.37;;;21.30;60.40;;;;;;4861255;29;20054;-89
2023/06/19 06:13:26;;;;;;;9.90;4.13;;;21.50;60.80;;;;;;4861429;29;20046;-89
2023/06/19 06:15:53;;;;;;;8.90;4.22;;;21.60;58.80;;;;;;4876722;29;20046;-90
2023/06/19 06:18:20;;;;;;;9.05;4.35;;;21.60;59.00;;;;;;4861592;29;20056;-91
2023/06/19 06:20:47;;;;;;;10.95;3.80;;;21.70;59.10;;;;;;4861370;29;20056;-91
2023/06/19 06:23:15;;;;;;;7.67;4.03;;;21.90;59.70;;;;;;4861488;29;20059;-91
2023/06/19 06:25:42;;;;;;;7.90;4.03;;;22.10;59.60;;;;;;4861482;29;20065;-91
2023/06/19 06:28:09;;;;;;;9.18;4.50;;;22.20;58.30;;;;;;4861359;29;20480;-91
2023/06/19 06:30:36;;;;;;;7.88;3.80;;;22.40;57.70;;;;;;4861337;29;20041;-91
2023/06/19 06:33:03;;;;;;;8.85;4.55;;;22.40;57.70;;;;;;4860937;29;20046;-91
2023/06/19 06:35:31;;;;;;;8.20;4.10;;;22.50;57.20;;;;;;4845964;29;20049;-91
2023/06/19 06:37:58;;;;;;;11.30;4.10;;;22.60;57.90;;;;;;4861074;29;20057;-91
2023/06/19 06:40:30;;;;;;;13.13;4.40;;;22.60;57.70;;;;;;4861396;29;20508;-92
2023/06/19 06:42:57;;;;;;;9.40;4.25;;;22.60;57.40;;;;;;4861304;29;20144;-92
2023/06/19 06:45:25;;;;;;;9.15;4.80;;;22.60;58.50;;;;;;4861170;29;20073;-92
2023/06/19 06:47:54;;;;;;;8.10;3.67;;;22.70;59.00;;;;;;4860893;29;20437;-91
2023/06/19 06:50:21;;;;;;;6.95;3.97;;;22.90;58.70;;;;;;4860540;29;20054;-93
2023/06/19 06:52:49;;;;;;;8.73;4.30;;;23.00;56.30;;;;;;4862289;29;20094;-92
2023/06/19 06:55:16;;;;;;;10.05;4.13;;;23.10;57.10;;;;;;4864277;29;20056;-91
2023/06/19 06:57:43;;;;;;;8.45;3.58;;;23.10;56.40;;;;;;4864376;29;20515;-92
2023/06/19 07:00:11;;;;;;;10.07;3.73;;;23.10;57.00;;;;;;4864349;29;20125;-92
2023/06/19 07:02:39;;;;;;;6.90;3.67;;;23.30;57.50;;;;;;4864551;29;20057;-93
2023/06/19 07:05:08;;;;;;;7.47;3.70;;;23.40;55.90;;;;;;4865057;29;20069;-92
2023/06/19 07:07:36;;;;;;;8.80;3.80;;;23.40;54.60;;;;;;4864941;29;20500;-89
2023/06/19 07:10:03;;;;;;;7.63;4.10;;;23.30;54.40;;;;;;4864955;29;20530;-91
2023/06/19 07:12:34;;;;;;;7.17;3.40;;;23.30;55.50;;;;;;4864333;29;20054;-92
2023/06/19 07:15:01;;;;;;;7.25;3.70;;;23.40;53.40;;;;;;4864413;29;20065;-91
2023/06/19 07:17:28;;;;;;;6.50;3.45;;;23.60;53.70;;;;;;4863917;29;20052;-92
2023/06/19 07:19:55;;;;;;;6.55;3.40;;;23.60;51.80;;;;;;4864459;29;20046;-92
2023/06/19 08:22:21;;;;;;;6.30;3.03;;;25.10;47.70;;;;;;5303357;23;21115;-91
2023/06/19 08:24:49;;;;;;;8.55;3.45;;;25.30;48.90;;;;;;4884961;29;20146;-91
2023/06/19 08:27:16;;;;;;;6.90;3.30;;;25.60;49.00;;;;;;4884697;29;20055;-92
2023/06/19 08:29:43;;;;;;;6.57;3.05;;;25.60;48.00;;;;;;4884792;29;20052;-91
2023/06/19 08:32:11;;;;;;;7.47;3.60;;;25.80;46.40;;;;;;4884370;29;20048;-91
2023/06/19 08:34:38;;;;;;;6.80;3.70;;;25.80;45.30;;;;;;4884422;29;20080;-91
2023/06/19 08:37:09;;;;;;;6.15;3.55;;;26.00;44.80;;;;;;4884588;29;20053;-92
2023/06/19 08:39:38;;;;;;;6.47;3.37;;;26.00;45.80;;;;;;4884591;29;20059;-91
2023/06/19 08:42:07;;;;;;;8.00;3.55;;;26.00;46.60;;;;;;4869167;29;20495;-92
2023/06/19 08:44:37;;;;;;;6.43;3.58;;;25.90;46.10;;;;;;4869400;29;20041;-92
2023/06/19 08:47:06;;;;;;;6.80;3.45;;;25.90;46.70;;;;;;4884217;29;20087;-92
2023/06/19 08:49:35;;;;;;;8.50;3.80;;;26.00;46.20;;;;;;4885244;29;20085;-91
2023/06/19 08:52:06;;;;;;;7.97;3.50;;;26.10;46.50;;;;;;4868959;29;20049;-92
2023/06/19 08:54:33;;;;;;;6.75;3.55;;;26.10;47.30;;;;;;4869252;29;20063;-89
2023/06/19 08:57:02;;;;;;;7.65;3.83;;;26.10;47.30;;;;;;4883687;29;20058;-88
2023/06/19 08:59:31;;;;;;;8.82;3.83;;;26.20;46.30;;;;;;4868599;29;20068;-89
2023/06/19 09:01:59;;;;;;;6.65;3.53;;;26.30;46.00;;;;;;4883795;29;20105;-89
2023/06/19 09:04:31;;;;;;;7.50;3.93;;;26.30;46.70;;;;;;4883857;29;20570;-89
2023/06/19 09:07:08;;;;;;;6.38;3.58;;;26.50;46.70;;;;;;4884001;29;20158;-89
2023/06/19 09:09:47;;;;;;;9.00;3.67;;;26.50;46.90;;;;;;4869292;29;20048;-89
2023/06/19 09:12:15;;;;;;;8.82;3.35;;;26.50;47.00;;;;;;4883507;29;20103;-89
2023/06/19 09:14:45;;;;;;;6.60;3.60;;;26.60;46.50;;;;;;4868306;29;20063;-89
2023/06/19 09:17:18;;;;;;;7.37;3.23;;;26.60;46.60;;;;;;4883248;29;20044;-89
2023/06/19 09:19:48;;;;;;;8.32;3.72;;;26.60;45.60;;;;;;4867921;29;20051;-90
2023/06/19 09:22:20;;;;;;;9.20;3.33;;;26.80;44.90;;;;;;4882956;29;20530;-90
2023/06/19 09:24:48;;;;;;;6.97;3.60;;;26.70;43.70;;;;;;4883453;29;20056;-90
2023/06/19 09:27:19;;;;;;;10.00;3.80;;;26.80;44.80;;;;;;4883208;29;20049;-89
2023/06/19 09:29:49;;;;;;;6.53;3.10;;;26.90;45.40;;;;;;4883323;29;20509;-89
2023/06/19 09:32:25;;;;;;;7.78;3.40;;;26.80;43.30;;;;;;4867867;29;20051;-89
2023/06/19 09:34:58;;;;;;;8.23;3.85;;;27.00;43.90;;;;;;4867933;29;20062;-89
2023/06/19 09:37:28;;;;;;;8.50;3.70;;;27.10;44.90;;;;;;4883065;29;20049;-90
2023/06/19 09:39:58;;;;;;;6.55;3.40;;;27.20;44.50;;;;;;4867941;29;20135;-89
2023/06/19 09:42:30;;;;;;;6.60;3.43;;;27.20;43.10;;;;;;4867521;29;20083;-89
2023/06/19 09:45:06;;;;;;;9.13;3.13;;;27.20;42.90;;;;;;4867984;29;20108;-90
2023/06/19 09:47:36;;;;;;;6.57;3.20;;;27.10;41.00;;;;;;4867502;29;20104;-89
2023/06/19 09:50:06;;;;;;;6.20;3.03;;;27.10;41.40;;;;;;4867724;29;20044;-90
2023/06/19 09:52:34;;;;;;;5.80;2.80;;;27.30;41.20;;;;;;4867646;29;20422;-90
2023/06/19 09:55:05;;;;;;;6.70;3.17;;;27.50;41.80;;;;;;4883208;29;20044;-90
2023/06/19 09:57:33;;;;;;;5.68;2.90;;;27.60;41.20;;;;;;4882686;29;20080;-90
2023/06/19 10:00:16;;;;;;;6.78;3.20;;;27.70;40.80;;;;;;4867987;29;20494;-90
2023/06/19 10:02:46;;;;;;;6.35;3.40;;;27.90;41.20;;;;;;4867482;29;20052;-89
2023/06/19 10:05:14;;;;;;;6.97;3.28;;;28.20;40.90;;;;;;4867549;29;20079;-89
2023/06/19 10:07:43;;;;;;;6.83;3.17;;;28.10;39.30;;;;;;4867348;29;20053;-89
2023/06/19 10:10:21;;;;;;;6.93;3.15;;;28.00;40.40;;;;;;4867335;29;20147;-90
2023/06/19 10:12:49;;;;;;;7.30;3.10;;;28.00;40.60;;;;;;4882730;29;20052;-90
2023/06/19 10:15:18;;;;;;;10.10;3.67;;;28.20;41.00;;;;;;4882942;29;20063;-90
2023/06/19 10:17:51;;;;;;;8.38;3.95;;;28.30;41.00;;;;;;4882462;29;20056;-90
2023/06/19 10:20:27;;;;;;;8.27;2.97;;;28.30;39.90;;;;;;4867405;29;20049;-90
2023/06/19 10:22:58;;;;;;;5.80;2.90;;;28.50;40.50;;;;;;4867563;29;20500;-91
2023/06/19 10:25:30;;;;;;;6.03;3.35;;;28.60;39.80;;;;;;4882723;29;20052;-89
2023/06/19 10:27:58;;;;;;;8.82;3.63;;;28.60;39.50;;;;;;4869003;29;20418;-90
2023/06/19 10:30:25;;;;;;;6.20;3.28;;;28.40;39.20;;;;;;4870992;29;20095;-90
2023/06/19 10:32:53;;;;;;;6.37;3.40;;;28.10;39.90;;;;;;4886227;29;20075;-90
2023/06/19 10:35:21;;;;;;;6.90;3.28;;;28.00;41.20;;;;;;4871604;29;20052;-90
2023/06/19 10:37:48;;;;;;;6.65;3.30;;;27.90;40.10;;;;;;4886294;29;20060;-90
2023/06/19 10:40:16;;;;;;;7.72;3.72;;;27.90;40.80;;;;;;4870964;29;20055;-90
2023/06/19 10:42:44;;;;;;;6.53;3.10;;;28.10;41.00;;;;;;4885950;29;20076;-90
2023/06/19 10:45:13;;;;;;;7.33;3.03;;;28.20;37.60;;;;;;4886128;29;20080;-90
2023/06/19 10:47:40;;;;;;;6.40;3.05;;;28.30;37.60;;;;;;4886349;29;20059;-90
2023/06/19 10:50:12;;;;;;;7.25;3.40;;;28.40;37.40;;;;;;4885793;29;20045;-90
2023/06/19 10:52:44;;;;;;;10.48;3.53;;;28.40;37.70;;;;;;4870901;29;20064;-90
2023/06/19 10:55:12;;;;;;;6.82;3.00;;;28.60;41.10;;;;;;4886051;29;20054;-90
2023/06/19 10:57:45;;;;;;;7.23;3.23;;;28.60;38.90;;;;;;4885992;29;20064;-90
2023/06/19 11:00:33;;;;;;;7.32;3.40;;;28.70;38.00;;;;;;4870489;29;20052;-90
2023/06/19 11:03:01;;;;;;;6.35;3.17;;;28.80;37.80;;;;;;4885819;29;20149;-90
2023/06/19 11:05:28;;;;;;;8.05;3.20;;;28.90;36.90;;;;;;4885943;29;20056;-90
2023/06/19 11:07:57;;;;;;;5.38;2.67;;;28.90;37.40;;;;;;4885998;29;20067;-90
2023/06/19 11:10:27;;;;;;;6.13;2.80;;;29.00;35.70;;;;;;4885728;29;20139;-90
2023/06/19 11:12:56;;;;;;;8.07;2.80;;;29.10;34.90;;;;;;4870332;29;20463;-90
2023/06/19 11:15:33;;;;;;;7.68;3.20;;;29.10;34.30;;;;;;4870356;29;20060;-90
2023/06/19 11:18:02;;;;;;;6.25;3.03;;;29.00;33.90;;;;;;4870395;29;20069;-90
2023/06/19 11:20:29;;;;;;;5.80;2.85;;;29.00;34.50;;;;;;4870276;29;20055;-90
2023/06/19 11:22:59;;;;;;;5.87;2.87;;;29.00;35.70;;;;;;4885294;29;20055;-90
2023/06/19 11:25:37;;;;;;;6.25;3.08;;;29.10;36.70;;;;;;4885340;29;20451;-90
2023/06/19 11:28:10;;;;;;;7.68;2.97;;;29.40;36.00;;;;;;4870223;29;20048;-90
2023/06/19 11:30:37;;;;;;;6.72;3.40;;;29.40;33.70;;;;;;4885627;29;20115;-90
2023/06/19 11:33:21;;;;;;;6.82;3.00;;;29.50;35.10;;;;;;4885429;29;20053;-90
2023/06/19 11:35:50;;;;;;;7.50;3.53;;;29.40;35.30;;;;;;4885295;29;20139;-91
2023/06/19 11:38:24;;;;;;;6.40;3.33;;;29.50;35.10;;;;;;4869433;29;20070;-90
2023/06/19 11:40:56;;;;;;;7.00;3.50;;;29.30;34.40;;;;;;4870111;29;20504;-89
2023/06/19 11:43:28;;;;;;;10.98;3.58;;;29.40;36.00;;;;;;4885207;29;20537;-90
2023/06/19 11:46:15;;;;;;;7.90;3.70;;;29.40;36.10;;;;;;4887851;29;20060;-90
2023/06/19 11:48:43;;;;;;;9.07;4.10;;;29.40;36.50;;;;;;4884914;29;20125;-90
2023/06/19 11:51:29;;;;;;;6.47;3.65;;;29.60;34.70;;;;;;4885073;29;20463;-90
2023/06/19 11:53:57;;;;;;;7.57;4.05;;;29.60;34.40;;;;;;4869851;29;20418;-90
2023/06/19 11:56:25;;;;;;;7.75;3.60;;;29.60;35.60;;;;;;4884792;29;20514;-90
2023/06/19 11:58:52;;;;;;;8.48;3.75;;;29.60;36.90;;;;;;4869662;29;20047;-90
2023/06/19 12:01:20;;;;;;;8.47;3.70;;;29.80;38.10;;;;;;4884942;29;20135;-90
2023/06/19 12:03:47;;;;;;;8.13;4.22;;;29.60;35.90;;;;;;4884797;29;20048;-90
2023/06/19 12:06:17;;;;;;;8.48;4.10;;;29.80;36.10;;;;;;4884634;29;20143;-90
2023/06/19 12:08:44;;;;;;;7.13;3.90;;;29.90;37.70;;;;;;4869183;29;20057;-90
2023/06/19 12:11:13;;;;;;;7.75;3.40;;;29.90;35.50;;;;;;4884689;29;20052;-90
2023/06/19 12:13:41;;;;;;;7.27;3.57;;;30.00;35.70;;;;;;4884569;29;20525;-90
2023/06/19 12:16:10;;;;;;;9.00;3.78;;;30.10;36.70;;;;;;4869182;29;20052;-91
2023/06/19 12:18:37;;;;;;;8.70;3.70;;;30.10;36.60;;;;;;4869000;29;20051;-90
2023/06/19 12:21:07;;;;;;;8.25;4.05;;;30.10;35.40;;;;;;4869903;29;20049;-90
2023/06/19 12:23:51;;;;;;;7.55;4.22;;;30.10;34.80;;;;;;4884096;29;20459;-90
2023/06/19 12:26:18;;;;;;;7.10;3.93;;;29.80;34.50;;;;;;4884505;29;20048;-90
2023/06/19 12:28:46;;;;;;;7.03;4.25;;;29.60;34.20;;;;;;4868796;29;20112;-90
2023/06/19 12:31:13;;;;;;;7.95;4.68;;;29.50;35.50;;;;;;4869020;29;20075;-90
2023/06/19 12:33:43;;;;;;;24.52;5.72;;;29.50;35.10;;;;;;4884536;29;20507;-90
2023/06/19 12:36:12;;;;;;;28.52;6.22;;;29.60;34.70;;;;;;4884350;29;20076;-90
2023/06/19 12:38:40;;;;;;;8.87;3.60;;;29.90;35.20;;;;;;4884193;29;20053;-90
2023/06/19 12:41:07;;;;;;;6.68;3.80;;;30.10;35.00;;;;;;4884027;29;20140;-89
2023/06/19 12:43:35;;;;;;;9.52;4.55;;;30.20;33.40;;;;;;4883988;29;20045;-90
2023/06/19 12:46:02;;;;;;;9.10;4.20;;;30.30;34.40;;;;;;4883853;29;20384;-90
2023/06/19 12:48:29;;;;;;;7.88;4.07;;;30.20;33.80;;;;;;4884085;29;20059;-90
2023/06/19 12:50:57;;;;;;;8.00;4.67;;;30.30;35.40;;;;;;4883247;29;20045;-90
2023/06/19 12:53:28;;;;;;;9.15;4.45;;;30.30;34.30;;;;;;4883946;29;20070;-90
2023/06/19 12:55:59;;;;;;;9.18;4.85;;;30.30;34.00;;;;;;4868353;29;20059;-90
2023/06/19 12:58:32;;;;;;;10.00;4.60;;;30.30;35.20;;;;;;4869217;29;20105;-90
2023/06/19 13:00:59;;;;;;;10.15;4.40;;;30.40;33.10;;;;;;4883477;29;20108;-90
2023/06/19 13:03:26;;;;;;;7.00;3.90;;;30.40;35.00;;;;;;4883712;29;20048;-90
2023/06/19 13:05:54;;;;;;;7.30;4.03;;;30.30;33.70;;;;;;4868360;29;20444;-89
2023/06/19 13:08:21;;;;;;;8.13;3.92;;;29.70;33.40;;;;;;4883436;29;20049;-89
2023/06/19 13:10:48;;;;;;;8.10;3.75;;;29.50;34.20;;;;;;4883585;29;20044;-90
2023/06/19 13:13:15;;;;;;;8.77;4.20;;;29.30;33.70;;;;;;4883390;29;20048;-90
2023/06/19 13:15:42;;;;;;;6.87;3.80;;;29.10;33.10;;;;;;4883764;29;20045;-90
2023/06/19 13:18:12;;;;;;;8.07;3.85;;;29.10;33.70;;;;;;4868153;29;20115;-90
2023/06/19 13:20:40;;;;;;;7.78;3.70;;;29.20;34.40;;;;;;4868242;29;20526;-90
2023/06/19 13:23:07;;;;;;;17.02;4.75;;;29.40;34.40;;;;;;4883315;29;20045;-89
2023/06/19 13:25:35;;;;;;;8.57;4.45;;;29.60;33.80;;;;;;4883338;29;20073;-90
2023/06/19 13:28:02;;;;;;;6.97;3.80;;;29.80;33.50;;;;;;4883290;29;20159;-90
2023/06/19 13:30:29;;;;;;;9.57;4.43;;;29.60;34.40;;;;;;4883207;29;20499;-90
2023/06/19 13:32:56;;;;;;;8.10;4.70;;;29.60;33.70;;;;;;4867904;29;20055;-89
2023/06/19 13:35:24;;;;;;;7.50;4.32;;;29.30;34.60;;;;;;4883012;29;20063;-90
2023/06/19 13:37:51;;;;;;;8.68;4.57;;;29.10;33.70;;;;;;4882969;29;20052;-89
2023/06/19 13:40:18;;;;;;;8.23;4.40;;;29.10;35.20;;;;;;4867830;29;20571;-89
2023/06/19 13:42:45;;;;;;;8.25;4.60;;;29.30;34.50;;;;;;4883003;29;20080;-90
2023/06/19 13:45:12;;;;;;;8.57;4.43;;;29.20;34.50;;;;;;4883190;29;20112;-90
2023/06/19 13:47:39;;;;;;;8.13;4.05;;;29.20;34.60;;;;;;4883150;29;20116;-89
2023/06/19 13:50:08;;;;;;;7.60;4.40;;;29.30;35.00;;;;;;4882743;29;20515;-89
2023/06/19 13:52:36;;;;;;;7.13;4.03;;;29.30;35.40;;;;;;4867752;29;20048;-89
2023/06/19 13:55:04;;;;;;;7.25;4.22;;;29.30;34.60;;;;;;4867635;29;20052;-89
2023/06/19 13:57:31;;;;;;;7.47;4.30;;;29.10;35.40;;;;;;4882714;29;20049;-90
2023/06/19 13:59:58;;;;;;;7.85;4.30;;;29.10;36.40;;;;;;4882607;29;20059;-90
2023/06/19 14:02:25;;;;;;;7.20;4.20;;;29.00;36.70;;;;;;4882804;29;20076;-90
2023/06/19 14:04:52;;;;;;;9.07;4.50;;;29.00;35.70;;;;;;4882955;29;20525;-89
2023/06/19 14:07:23;;;;;;;7.35;4.25;;;28.80;37.10;;;;;;4867389;29;20051;-90
2023/06/19 14:09:53;;;;;;;8.23;4.50;;;28.70;37.50;;;;;;4867399;29;20044;-89